Time;durP1;ratioP1;P1;durP2;ratioP2;P2;SDS_P1;SDS_P2;PMS_P1;PMS_P2;Temp;Humidity;BMP_temperature;BMP_pressure;BME280_temperature;BME280_humidity;BME280_pressure;Samples;Min_cycle;Max_cycle;Signal;HPM_P1;HPM_P2
2021/03/21 00:01:49;;;;;;;6.47;4.80;;;6.80;1.00;;;;;;5096006;28;20191;-69
2021/03/21 00:04:15;;;;;;;7.17;5.20;;;6.90;1.00;;;;;;5096303;28;20766;-68
2021/03/21 00:06:42;;;;;;;11.80;6.13;;;6.90;1.00;;;;;;5096270;28;20187;-69
2021/03/21 00:09:08;;;;;;;8.05;5.00;;;6.70;1.00;;;;;;5095980;28;20167;-68
2021/03/21 00:11:34;;;;;;;10.13;6.38;;;6.60;1.00;;;;;;5095820;28;20195;-69
2021/03/21 00:14:00;;;;;;;8.05;6.05;;;6.60;1.00;;;;;;5095906;28;20160;-69
2021/03/21 00:16:26;;;;;;;8.27;6.43;;;6.70;1.00;;;;;;5096101;28;20171;-69
2021/03/21 00:18:52;;;;;;;9.30;6.57;;;6.80;1.00;;;;;;5095206;28;20164;-69
2021/03/21 00:21:17;;;;;;;7.37;6.00;;;7.00;1.00;;;;;;5095797;28;20225;-69
2021/03/21 00:23:43;;;;;;;9.70;6.90;;;6.70;1.00;;;;;;5095687;28;20236;-69
2021/03/21 00:26:10;;;;;;;7.75;5.57;;;6.70;1.00;;;;;;5095891;28;20224;-69
2021/03/21 00:28:38;;;;;;;8.18;5.60;;;6.70;1.00;;;;;;5095647;28;20167;-69
2021/03/21 00:31:06;;;;;;;8.23;6.15;;;6.70;1.00;;;;;;5095539;28;20223;-69
2021/03/21 00:33:35;;;;;;;10.57;6.93;;;6.80;1.00;;;;;;5095506;28;20194;-69
2021/03/21 00:36:02;;;;;;;9.30;6.63;;;6.60;1.00;;;;;;5095589;28;20202;-69
2021/03/21 00:38:31;;;;;;;12.52;7.30;;;6.50;1.00;;;;;;5095986;28;20654;-69
2021/03/21 00:40:57;;;;;;;9.35;6.78;;;6.40;1.00;;;;;;5095409;28;20548;-69
2021/03/21 00:43:23;;;;;;;9.30;6.75;;;6.90;1.00;;;;;;5095207;28;20191;-69
2021/03/21 00:45:51;;;;;;;10.27;7.43;;;6.90;1.00;;;;;;5095365;28;20228;-69
2021/03/21 00:48:36;;;;;;;10.98;8.50;;;6.90;1.00;;;;;;5095257;28;20194;-69
2021/03/21 00:51:02;;;;;;;11.15;8.20;;;7.10;1.00;;;;;;5095450;28;20188;-69
2021/03/21 00:53:28;;;;;;;15.55;10.18;;;6.70;1.00;;;;;;5095110;28;20187;-69
2021/03/21 00:55:53;;;;;;;15.20;10.70;;;6.40;1.00;;;;;;5095057;28;20172;-69
2021/03/21 00:58:19;;;;;;;13.90;10.10;;;6.70;1.00;;;;;;5095033;28;20178;-69
2021/03/21 01:00:50;;;;;;;13.40;10.30;;;6.50;1.00;;;;;;5095053;28;20167;-69
2021/03/21 01:03:16;;;;;;;15.15;11.38;;;6.60;1.00;;;;;;5094997;28;20392;-69
2021/03/21 01:05:59;;;;;;;19.23;11.93;;;6.60;1.00;;;;;;5094926;28;20174;-69
2021/03/21 01:08:30;;;;;;;17.85;12.75;;;6.50;4.80;;;;;;5094964;28;20155;-69
2021/03/21 01:11:00;;;;;;;18.25;12.75;;;6.50;22.00;;;;;;5094796;28;20147;-68
2021/03/21 01:13:26;;;;;;;22.20;13.57;;;6.70;26.00;;;;;;5095115;28;20728;-69
2021/03/21 01:15:53;;;;;;;17.33;13.25;;;6.30;99.90;;;;;;5093497;28;20172;-69
2021/03/21 01:18:27;;;;;;;21.10;14.63;;;6.10;99.90;;;;;;5094922;28;20241;-68
2021/03/21 01:20:53;;;;;;;21.67;14.70;;;6.00;99.90;;;;;;5094935;28;20152;-69
2021/03/21 01:23:19;;;;;;;22.65;15.93;;;6.20;1.00;;;;;;5094593;28;20562;-68
2021/03/21 01:25:45;;;;;;;20.48;14.45;;;6.10;1.00;;;;;;5094599;28;20174;-68
2021/03/21 01:28:37;;;;;;;25.20;16.33;;;6.10;1.00;;;;;;5094556;28;20164;-68
2021/03/21 01:31:05;;;;;;;27.55;15.90;;;6.00;26.50;;;;;;5087874;28;20432;-69
2021/03/21 01:33:32;;;;;;;23.38;16.05;;;6.30;99.90;;;;;;5094285;28;20184;-69
2021/03/21 01:35:58;;;;;;;25.05;15.43;;;6.30;1.00;;;;;;5094646;28;20171;-69
2021/03/21 01:38:24;;;;;;;28.48;17.50;;;6.00;1.00;;;;;;5094784;28;20597;-69
2021/03/21 01:40:54;;;;;;;25.60;17.95;;;5.90;99.90;;;;;;5094244;28;20701;-69
2021/03/21 01:43:28;;;;;;;25.05;16.75;;;6.10;1.00;;;;;;5094116;28;20687;-69
2021/03/21 01:45:54;;;;;;;29.23;19.35;;;6.00;1.00;;;;;;5094443;28;20154;-69
2021/03/21 01:48:21;;;;;;;25.13;16.43;;;6.00;99.90;;;;;;5094184;28;20535;-69
2021/03/21 01:50:58;;;;;;;28.77;18.75;;;5.90;99.90;;;;;;5094188;28;20511;-69
2021/03/21 01:53:26;;;;;;;32.00;19.75;;;5.80;1.00;;;;;;5093992;28;20186;-69
2021/03/21 01:55:53;;;;;;;31.50;19.75;;;5.80;99.90;;;;;;5094284;28;20563;-69
2021/03/21 01:58:23;;;;;;;29.88;19.27;;;5.80;1.00;;;;;;5094234;28;20205;-69
2021/03/21 02:00:50;;;;;;;27.80;19.45;;;5.90;99.90;;;;;;5092626;28;20174;-69
2021/03/21 02:03:16;;;;;;;28.90;19.40;;;5.90;1.00;;;;;;5093812;28;20176;-69
2021/03/21 02:05:42;;;;;;;30.10;19.00;;;6.00;1.00;;;;;;5093755;28;20528;-69
2021/03/21 02:08:34;;;;;;;30.52;19.20;;;5.90;99.90;;;;;;5093585;28;20179;-69
2021/03/21 02:11:16;;;;;;;29.50;17.52;;;6.00;99.90;;;;;;5093686;28;20184;-69
2021/03/21 02:14:15;;;;;;;31.48;19.38;;;5.90;1.00;;;;;;5093586;28;20184;-69
2021/03/21 02:16:52;;;;;;;31.05;21.73;;;6.00;1.00;;;;;;5094073;28;20152;-69
2021/03/21 02:19:30;;;;;;;28.75;19.50;;;6.30;99.90;;;;;;5093685;28;20171;-69
2021/03/21 02:22:02;;;;;;;27.45;18.77;;;6.20;99.90;;;;;;5093472;28;20220;-69
2021/03/21 02:25:07;;;;;;;32.05;20.85;;;6.20;1.00;;;;;;5093679;28;20582;-69
2021/03/21 02:27:50;;;;;;;35.83;21.55;;;6.00;68.80;;;;;;5052597;28;20183;-69
2021/03/21 02:30:26;;;;;;;34.67;19.70;;;5.80;1.00;;;;;;5093755;28;20147;-69
2021/03/21 02:33:08;;;;;;;29.40;18.70;;;6.20;99.90;;;;;;5093213;28;20203;-69
2021/03/21 02:35:43;;;;;;;30.45;20.90;;;6.20;99.90;;;;;;5093801;28;20156;-69
2021/03/21 02:38:28;;;;;;;27.55;19.23;;;6.30;99.90;;;;;;5093362;28;20158;-69
2021/03/21 02:41:18;;;;;;;28.25;19.42;;;6.20;1.00;;;;;;5093507;28;20155;-68
2021/03/21 02:43:50;;;;;;;24.35;16.45;;;6.40;1.00;;;;;;5093180;28;20214;-68
2021/03/21 02:46:30;;;;;;;25.00;17.83;;;6.30;1.00;;;;;;5093213;28;20163;-69
2021/03/21 02:49:00;;;;;;;24.10;16.25;;;6.20;85.10;;;;;;5093088;28;20156;-68
2021/03/21 02:51:31;;;;;;;23.42;15.80;;;6.10;1.00;;;;;;5093095;28;20191;-68
2021/03/21 02:54:14;;;;;;;31.23;17.05;;;6.00;99.90;;;;;;5093321;28;20239;-68
2021/03/21 02:56:42;;;;;;;24.30;17.05;;;6.00;1.00;;;;;;5093311;28;20273;-68
2021/03/21 02:59:12;;;;;;;22.83;15.57;;;6.10;1.00;;;;;;5093292;28;20250;-69
2021/03/21 03:01:45;;;;;;;23.33;15.00;;;6.00;99.90;;;;;;5092961;28;20554;-69
2021/03/21 03:04:17;;;;;;;22.88;15.27;;;6.00;1.00;;;;;;5093095;28;20164;-69
2021/03/21 03:06:50;;;;;;;22.25;15.65;;;5.90;99.90;;;;;;5092883;28;20636;-68
2021/03/21 03:09:23;;;;;;;20.77;15.18;;;5.90;99.90;;;;;;5093073;28;20187;-69
2021/03/21 03:11:58;;;;;;;22.80;15.43;;;5.90;99.90;;;;;;5093101;28;20292;-69
2021/03/21 03:14:33;;;;;;;23.02;15.13;;;5.90;99.90;;;;;;5093014;28;20166;-68
2021/03/21 03:17:06;;;;;;;19.63;13.30;;;5.70;99.90;;;;;;5092969;28;20570;-69
2021/03/21 03:19:53;;;;;;;19.45;13.80;;;5.80;99.90;;;;;;5093111;28;20309;-69
2021/03/21 03:22:27;;;;;;;20.58;14.25;;;5.90;1.00;;;;;;5092922;28;20187;-69
2021/03/21 03:25:12;;;;;;;21.60;14.68;;;5.80;99.90;;;;;;5093019;28;20166;-69
2021/03/21 03:28:00;;;;;;;21.70;13.55;;;5.90;99.90;;;;;;5092761;28;20234;-69
2021/03/21 03:30:51;;;;;;;20.65;13.73;;;5.90;1.00;;;;;;5093030;28;20640;-69
2021/03/21 03:33:18;;;;;;;22.40;15.02;;;5.90;99.90;;;;;;5093593;28;20660;-69
2021/03/21 03:35:44;;;;;;;21.85;14.23;;;5.80;1.00;;;;;;5094158;28;20277;-69
2021/03/21 03:38:11;;;;;;;19.97;13.30;;;5.90;99.90;;;;;;5093336;28;20199;-68
2021/03/21 03:40:39;;;;;;;20.10;14.25;;;5.80;99.90;;;;;;5092626;28;20373;-68
2021/03/21 03:43:30;;;;;;;22.35;13.70;;;5.80;99.90;;;;;;5092630;28;20214;-68
2021/03/21 03:45:55;;;;;;;18.58;13.00;;;5.70;99.90;;;;;;5092948;28;20519;-68
2021/03/21 03:48:48;;;;;;;20.03;13.40;;;5.70;1.00;;;;;;5092810;28;20172;-68
2021/03/21 03:51:41;;;;;;;21.40;13.00;;;5.70;87.90;;;;;;5092528;28;20183;-67
2021/03/21 03:54:22;;;;;;;19.52;12.45;;;5.70;99.90;;;;;;5093881;28;20230;-69
2021/03/21 03:57:24;;;;;;;14.95;11.65;;;5.70;99.90;;;;;;5096303;28;20220;-69
2021/03/21 03:59:56;;;;;;;18.50;12.25;;;5.60;99.90;;;;;;5095705;28;20256;-68
2021/03/21 04:02:33;;;;;;;16.73;11.93;;;5.70;99.90;;;;;;5096221;28;20641;-68
2021/03/21 04:05:08;;;;;;;19.73;12.93;;;5.60;1.00;;;;;;5096544;28;20615;-69
2021/03/21 04:08:01;;;;;;;18.80;12.55;;;5.50;1.00;;;;;;5096063;28;20182;-69
2021/03/21 04:10:39;;;;;;;20.33;13.15;;;5.50;1.00;;;;;;5096017;28;20194;-69
2021/03/21 04:13:10;;;;;;;19.02;12.75;;;5.50;1.00;;;;;;5096234;28;20293;-68
2021/03/21 04:15:43;;;;;;;20.88;13.50;;;5.50;1.00;;;;;;5095926;28;20160;-69
2021/03/21 04:18:27;;;;;;;24.17;14.90;;;5.60;99.70;;;;;;5096315;28;20159;-69
2021/03/21 04:21:13;;;;;;;24.60;13.77;;;5.70;1.90;;;;;;5096177;28;20229;-69
2021/03/21 04:23:59;;;;;;;22.10;14.73;;;5.60;1.00;;;;;;5096186;28;20229;-69
2021/03/21 04:26:46;;;;;;;23.95;14.90;;;5.60;1.00;;;;;;5096084;28;20148;-69
2021/03/21 04:29:29;;;;;;;24.63;16.00;;;5.60;43.80;;;;;;5095728;28;20159;-68
2021/03/21 04:31:59;;;;;;;23.98;15.30;;;5.60;20.50;;;;;;5095776;28;20195;-69
2021/03/21 04:34:28;;;;;;;25.83;17.48;;;5.60;18.50;;;;;;5095579;28;20251;-69
2021/03/21 04:36:56;;;;;;;19.90;14.95;;;5.60;57.70;;;;;;5095568;28;20228;-69
2021/03/21 04:39:28;;;;;;;29.15;17.88;;;5.80;99.90;;;;;;5095716;28;20281;-68
2021/03/21 04:42:17;;;;;;;22.67;16.48;;;6.10;99.90;;;;;;5095422;28;20214;-68
2021/03/21 04:44:51;;;;;;;25.70;16.77;;;5.70;1.00;;;;;;5095674;28;20597;-69
2021/03/21 04:47:21;;;;;;;26.20;16.40;;;5.70;1.00;;;;;;5095648;28;20644;-68
2021/03/21 04:49:47;;;;;;;25.80;17.10;;;5.70;1.00;;;;;;5095301;28;20190;-68
2021/03/21 04:52:38;;;;;;;30.47;19.20;;;5.70;1.00;;;;;;5095104;28;20687;-68
2021/03/21 04:55:06;;;;;;;24.38;15.88;;;5.70;1.00;;;;;;5095540;28;20231;-71
2021/03/21 04:57:44;;;;;;;23.98;14.15;;;5.80;1.00;;;;;;5095120;28;20168;-68
2021/03/21 05:00:37;;;;;;;23.98;15.73;;;5.70;1.00;;;;;;5095178;28;20643;-68
2021/03/21 05:03:26;;;;;;;24.35;14.50;;;5.60;1.00;;;;;;5094956;28;20274;-68
2021/03/21 05:05:59;;;;;;;23.92;15.32;;;5.50;54.40;;;;;;5094847;28;20155;-68
2021/03/21 05:08:33;;;;;;;21.23;13.18;;;5.50;99.90;;;;;;5095281;28;20160;-68
2021/03/21 05:11:02;;;;;;;23.48;14.65;;;5.50;99.90;;;;;;5094842;28;20498;-68
2021/03/21 05:13:47;;;;;;;24.58;13.48;;;5.50;99.90;;;;;;5095031;28;20297;-69
2021/03/21 05:16:16;;;;;;;25.13;14.70;;;5.50;99.90;;;;;;5095078;28;20152;-69
2021/03/21 05:18:56;;;;;;;18.10;12.32;;;5.60;99.90;;;;;;5095265;28;20160;-69
2021/03/21 05:21:37;;;;;;;16.55;10.32;;;5.60;99.90;;;;;;5095213;28;20212;-69
2021/03/21 05:24:12;;;;;;;16.33;10.95;;;5.50;99.90;;;;;;5093635;28;20193;-69
2021/03/21 05:26:59;;;;;;;19.10;12.30;;;5.60;99.90;;;;;;5094713;28;20152;-69
2021/03/21 05:29:37;;;;;;;16.85;10.07;;;5.60;99.90;;;;;;5094889;28;20163;-69
2021/03/21 05:32:06;;;;;;;17.25;12.27;;;5.60;99.90;;;;;;5094512;28;20222;-69
2021/03/21 05:34:32;;;;;;;16.92;11.75;;;5.60;99.90;;;;;;5094341;28;20520;-68
2021/03/21 05:37:40;;;;;;;18.37;11.80;;;5.60;99.90;;;;;;5094607;28;20171;-69
2021/03/21 05:40:45;;;;;;;19.58;13.10;;;5.60;99.90;;;;;;5063049;28;20422;-69
2021/03/21 05:43:27;;;;;;;18.17;11.50;;;5.70;99.90;;;;;;5094232;28;20183;-69
2021/03/21 05:46:30;;;;;;;19.73;13.70;;;5.60;99.90;;;;;;5094249;28;20698;-69
2021/03/21 05:49:49;;;;;;;18.38;13.52;;;5.80;99.90;;;;;;5094112;28;20171;-69
2021/03/21 05:52:27;;;;;;;20.50;12.15;;;5.80;99.90;;;;;;5011924;28;20335;-69
2021/03/21 05:55:17;;;;;;;18.33;12.15;;;5.80;99.90;;;;;;5094291;28;20152;-69
2021/03/21 05:58:13;;;;;;;20.13;13.63;;;5.80;99.90;;;;;;5094423;28;20605;-69
2021/03/21 06:01:03;;;;;;;18.77;11.32;;;6.00;99.90;;;;;;5093883;28;20163;-69
2021/03/21 06:03:50;;;;;;;24.15;15.40;;;5.70;99.90;;;;;;5094374;28;20187;-68
2021/03/21 06:06:42;;;;;;;19.48;13.50;;;5.70;99.90;;;;;;5093681;28;20183;-69
2021/03/21 06:09:22;;;;;;;21.60;13.48;;;5.80;99.90;;;;;;5094055;28;20155;-69
2021/03/21 06:12:26;;;;;;;20.55;12.93;;;5.90;99.90;;;;;;5093753;28;20206;-69
2021/03/21 06:15:29;;;;;;;20.98;12.90;;;6.10;99.90;;;;;;5093642;28;20152;-69
2021/03/21 06:18:32;;;;;;;16.52;11.07;;;6.00;99.90;;;;;;5093100;28;20199;-69
2021/03/21 06:21:15;;;;;;;17.58;11.75;;;5.80;99.90;;;;;;5093587;28;20185;-68
2021/03/21 06:24:02;;;;;;;16.70;10.18;;;6.00;99.90;;;;;;5093460;28;20206;-69
2021/03/21 06:26:43;;;;;;;17.95;10.98;;;6.00;99.90;;;;;;5093488;28;20163;-69
2021/03/21 06:29:31;;;;;;;17.75;11.07;;;6.20;99.90;;;;;;5093484;28;20148;-69
2021/03/21 06:32:10;;;;;;;15.23;9.85;;;5.90;99.90;;;;;;5093662;28;20675;-69
2021/03/21 06:34:50;;;;;;;14.90;9.88;;;5.90;99.90;;;;;;5093773;28;20516;-69
2021/03/21 06:37:46;;;;;;;13.75;7.88;;;5.90;99.90;;;;;;5093593;28;20201;-69
2021/03/21 06:40:48;;;;;;;16.40;9.40;;;5.70;99.90;;;;;;5093613;28;20159;-69
2021/03/21 06:43:42;;;;;;;17.92;10.40;;;5.70;99.90;;;;;;5093145;28;20205;-69
2021/03/21 06:46:28;;;;;;;15.70;9.25;;;6.00;99.90;;;;;;5093207;28;20152;-69
2021/03/21 06:49:29;;;;;;;16.15;10.57;;;6.10;99.90;;;;;;5093169;28;20183;-68
2021/03/21 06:52:01;;;;;;;19.55;11.85;;;6.20;99.90;;;;;;5093067;28;20237;-69
2021/03/21 06:54:38;;;;;;;18.42;11.90;;;6.20;99.90;;;;;;5093110;28;20167;-69
2021/03/21 06:57:36;;;;;;;18.45;11.30;;;6.00;99.90;;;;;;5093059;28;20151;-69
2021/03/21 07:00:24;;;;;;;19.05;12.20;;;5.80;99.90;;;;;;5093039;28;20167;-69
2021/03/21 07:03:37;;;;;;;19.45;12.13;;;5.80;99.90;;;;;;5092962;28;20187;-69
2021/03/21 07:06:30;;;;;;;20.52;12.95;;;6.00;99.90;;;;;;5092883;28;20175;-69
2021/03/21 07:09:32;;;;;;;21.00;12.95;;;5.90;99.90;;;;;;5092869;28;20229;-69
2021/03/21 07:12:16;;;;;;;18.75;13.15;;;6.00;99.90;;;;;;5091901;28;20210;-69
2021/03/21 07:15:19;;;;;;;17.88;11.30;;;6.30;99.90;;;;;;5093240;28;20148;-69
2021/03/21 07:17:50;;;;;;;17.92;12.38;;;6.30;99.90;;;;;;5092818;28;20212;-69
2021/03/21 07:20:53;;;;;;;22.58;15.25;;;6.60;99.90;;;;;;5092837;28;20191;-69
2021/03/21 07:23:37;;;;;;;20.45;13.73;;;6.70;99.90;;;;;;5092764;28;20187;-69
2021/03/21 07:26:47;;;;;;;17.30;12.57;;;6.70;99.90;;;;;;5092786;28;20528;-68
2021/03/21 07:29:22;;;;;;;15.95;12.35;;;6.70;99.90;;;;;;5093886;28;20589;-69
2021/03/21 07:31:59;;;;;;;17.00;12.48;;;6.90;99.90;;;;;;5096802;28;20205;-69
2021/03/21 07:35:07;;;;;;;19.55;13.18;;;7.10;99.90;;;;;;5096972;28;20155;-69
2021/03/21 07:37:56;;;;;;;21.00;13.93;;;7.00;99.90;;;;;;5096973;28;20152;-69
2021/03/21 07:40:52;;;;;;;20.90;13.38;;;7.20;99.90;;;;;;5096666;28;20520;-69
2021/03/21 07:43:49;;;;;;;21.70;14.18;;;7.10;99.90;;;;;;5096735;28;20604;-69
2021/03/21 07:46:14;;;;;;;20.55;14.77;;;7.20;99.90;;;;;;5096564;28;20171;-68
2021/03/21 07:49:10;;;;;;;20.17;15.23;;;7.20;99.90;;;;;;5096443;28;20156;-69
2021/03/21 07:52:08;;;;;;;21.15;14.52;;;7.10;99.90;;;;;;5096521;28;20218;-68
2021/03/21 07:54:38;;;;;;;22.38;14.77;;;7.30;99.90;;;;;;5095677;28;20267;-69
2021/03/21 07:57:09;;;;;;;24.92;14.68;;;7.40;99.90;;;;;;5096192;28;20167;-69
2021/03/21 07:59:35;;;;;;;23.10;15.57;;;7.40;99.90;;;;;;5096331;28;20168;-69
2021/03/21 08:02:01;;;;;;;24.15;15.70;;;7.00;99.90;;;;;;5095879;28;20188;-69
2021/03/21 08:04:32;;;;;;;28.37;16.30;;;7.00;99.90;;;;;;5096060;28;20225;-69
2021/03/21 08:07:09;;;;;;;35.45;16.65;;;6.90;99.90;;;;;;5095913;28;20183;-69
2021/03/21 08:09:38;;;;;;;25.88;17.60;;;6.70;99.90;;;;;;5096199;28;20209;-69
2021/03/21 08:12:18;;;;;;;24.05;15.13;;;6.80;99.90;;;;;;5095918;28;20747;-68
2021/03/21 08:14:57;;;;;;;27.45;16.95;;;6.90;99.90;;;;;;5096130;28;20175;-69
2021/03/21 08:17:33;;;;;;;24.38;15.18;;;6.70;99.90;;;;;;5095887;28;20159;-68
2021/03/21 08:20:04;;;;;;;19.98;14.90;;;7.00;99.90;;;;;;5095842;28;20152;-69
2021/03/21 08:22:31;;;;;;;24.83;16.20;;;7.00;99.90;;;;;;5095740;28;20203;-68
2021/03/21 08:25:04;;;;;;;18.15;12.63;;;7.10;99.90;;;;;;5096002;28;20167;-69
2021/03/21 08:27:32;;;;;;;19.15;13.05;;;7.10;99.90;;;;;;5095931;28;20209;-68
2021/03/21 08:30:03;;;;;;;17.15;11.75;;;6.70;99.90;;;;;;5095665;28;20170;-71
2021/03/21 08:32:31;;;;;;;20.67;12.32;;;6.70;99.90;;;;;;5095757;28;20199;-68
2021/03/21 08:35:16;;;;;;;19.58;12.90;;;6.60;99.90;;;;;;5095596;28;20175;-68
2021/03/21 08:37:49;;;;;;;19.88;12.95;;;6.90;99.90;;;;;;5095650;28;20579;-68
2021/03/21 08:40:30;;;;;;;16.25;11.82;;;6.70;99.90;;;;;;5095118;28;20170;-68
2021/03/21 08:43:14;;;;;;;17.58;12.75;;;6.60;99.90;;;;;;5095951;28;20644;-68
2021/03/21 08:45:44;;;;;;;18.83;12.40;;;6.90;99.90;;;;;;5095441;28;20207;-69
2021/03/21 08:48:20;;;;;;;20.73;11.05;;;7.00;99.90;;;;;;5095575;28;20557;-69
2021/03/21 08:50:49;;;;;;;16.60;11.63;;;6.80;99.90;;;;;;5095535;28;20152;-69
2021/03/21 08:53:29;;;;;;;18.95;12.00;;;6.80;99.90;;;;;;5095047;28;20282;-69
2021/03/21 08:56:13;;;;;;;18.60;11.52;;;7.10;99.90;;;;;;5095023;28;20251;-68
2021/03/21 08:58:40;;;;;;;16.20;11.40;;;7.10;99.90;;;;;;5095229;28;20532;-68
2021/03/21 09:01:19;;;;;;;15.90;11.32;;;7.30;99.90;;;;;;5094978;28;20159;-69
2021/03/21 09:03:45;;;;;;;13.57;10.00;;;7.00;99.90;;;;;;5094849;28;20187;-68
2021/03/21 09:06:31;;;;;;;15.88;11.00;;;7.00;99.90;;;;;;5094541;28;20206;-69
2021/03/21 09:09:27;;;;;;;16.80;10.98;;;6.80;99.90;;;;;;5095000;28;20171;-69
2021/03/21 09:11:55;;;;;;;15.88;10.85;;;6.90;99.90;;;;;;5094584;28;20255;-69
2021/03/21 09:14:28;;;;;;;17.67;12.07;;;7.00;99.90;;;;;;5095068;28;20525;-69
2021/03/21 09:17:06;;;;;;;19.73;12.18;;;7.20;99.90;;;;;;5094550;28;20212;-69
2021/03/21 09:19:37;;;;;;;14.02;10.15;;;7.30;99.90;;;;;;5094614;28;20148;-69
2021/03/21 09:22:11;;;;;;;15.85;10.95;;;7.30;99.90;;;;;;5094571;28;20191;-69
2021/03/21 09:24:40;;;;;;;18.30;12.20;;;7.50;99.90;;;;;;5094913;28;20178;-69
2021/03/21 09:27:31;;;;;;;15.93;12.15;;;7.20;99.90;;;;;;5094631;28;20163;-69
2021/03/21 09:29:59;;;;;;;20.33;11.77;;;7.10;99.90;;;;;;5094354;28;20176;-69
2021/03/21 09:32:28;;;;;;;16.60;10.55;;;7.00;99.90;;;;;;5094253;28;20202;-69
2021/03/21 09:35:17;;;;;;;15.90;10.82;;;7.20;99.90;;;;;;5094610;28;20160;-69
2021/03/21 09:37:43;;;;;;;13.63;10.27;;;7.60;99.90;;;;;;5094900;28;20198;-69
2021/03/21 09:40:31;;;;;;;14.18;11.10;;;7.20;99.90;;;;;;5094265;28;20174;-69
2021/03/21 09:42:57;;;;;;;17.65;11.13;;;7.50;99.90;;;;;;5094134;28;20183;-69
2021/03/21 09:45:22;;;;;;;18.80;11.33;;;7.20;99.90;;;;;;5094157;28;20220;-69
2021/03/21 09:47:58;;;;;;;18.40;11.03;;;7.50;99.90;;;;;;5094094;28;20248;-69
2021/03/21 09:50:38;;;;;;;13.77;9.63;;;7.80;99.90;;;;;;5094059;28;20151;-69
2021/03/21 09:53:24;;;;;;;16.52;9.00;;;7.60;5.10;;;;;;5093328;28;20260;-68
2021/03/21 09:55:52;;;;;;;14.77;10.50;;;7.10;66.50;;;;;;5094254;28;20636;-69
2021/03/21 09:58:26;;;;;;;13.60;9.50;;;7.20;90.40;;;;;;5094153;28;20159;-69
2021/03/21 10:01:04;;;;;;;11.05;7.95;;;7.50;99.90;;;;;;5093757;28;20178;-69
2021/03/21 10:03:32;;;;;;;9.38;7.10;;;7.10;1.00;;;;;;5093792;28;20191;-69
2021/03/21 10:06:16;;;;;;;15.00;8.70;;;7.20;51.80;;;;;;5093727;28;20160;-69
2021/03/21 10:08:58;;;;;;;21.40;8.43;;;7.60;17.30;;;;;;5093732;28;20171;-69
2021/03/21 10:11:36;;;;;;;8.45;5.60;;;7.60;1.00;;;;;;5093900;28;20179;-69
2021/03/21 10:14:22;;;;;;;9.25;4.13;;;7.80;99.90;;;;;;5093530;28;20667;-69
2021/03/21 10:16:48;;;;;;;8.20;3.50;;;7.60;57.60;;;;;;5093392;28;20194;-69
2021/03/21 10:19:40;;;;;;;6.03;2.95;;;7.70;99.90;;;;;;5093442;28;20163;-69
2021/03/21 10:22:21;;;;;;;8.23;3.25;;;7.80;1.00;;;;;;5093357;28;20198;-68
2021/03/21 10:24:50;;;;;;;15.13;4.00;;;8.30;1.00;;;;;;5092888;28;20168;-69
2021/03/21 10:27:19;;;;;;;7.85;3.58;;;8.20;99.90;;;;;;5093424;28;20171;-69
2021/03/21 10:30:06;;;;;;;7.05;2.28;;;7.90;99.90;;;;;;5093622;28;20235;-69
2021/03/21 10:32:34;;;;;;;10.43;1.88;;;7.60;99.90;;;;;;5093321;28;20221;-69
2021/03/21 10:35:02;;;;;;;13.48;2.70;;;7.20;99.90;;;;;;5093542;28;20262;-69
2021/03/21 10:37:43;;;;;;;5.70;1.85;;;7.20;99.90;;;;;;5093228;28;20175;-69
2021/03/21 10:40:24;;;;;;;12.13;3.05;;;7.40;99.90;;;;;;5093198;28;20187;-69
2021/03/21 10:42:53;;;;;;;17.33;2.63;;;7.60;48.70;;;;;;5093034;28;20537;-68
2021/03/21 10:45:38;;;;;;;9.75;2.67;;;7.40;99.90;;;;;;5093164;28;20168;-68
2021/03/21 10:48:11;;;;;;;5.63;1.88;;;7.80;99.90;;;;;;5093068;28;20206;-69
2021/03/21 10:50:45;;;;;;;6.72;2.30;;;7.90;3.50;;;;;;5093082;28;20155;-69
2021/03/21 10:53:26;;;;;;;11.55;2.35;;;8.00;1.00;;;;;;5093024;28;20212;-69
2021/03/21 10:56:13;;;;;;;9.85;2.65;;;8.10;17.80;;;;;;5092926;28;20167;-69
2021/03/21 10:58:45;;;;;;;8.68;2.30;;;7.90;5.00;;;;;;5092881;28;20170;-68
2021/03/21 11:01:17;;;;;;;10.55;2.83;;;7.90;23.70;;;;;;5092896;28;20163;-69
2021/03/21 11:03:57;;;;;;;19.02;2.90;;;8.00;1.00;;;;;;5092635;28;20601;-69
2021/03/21 11:06:25;;;;;;;14.88;2.60;;;8.30;1.00;;;;;;5092626;28;20183;-69
2021/03/21 11:08:51;;;;;;;18.13;3.95;;;8.30;1.00;;;;;;5092712;28;20178;-69
2021/03/21 11:11:22;;;;;;;12.67;3.70;;;8.20;1.00;;;;;;5093093;28;20633;-69
2021/03/21 11:13:50;;;;;;;17.58;4.20;;;7.70;1.00;;;;;;5092834;28;20172;-68
2021/03/21 11:16:18;;;;;;;19.48;4.75;;;7.70;90.70;;;;;;5093070;28;20168;-69
2021/03/21 11:19:03;;;;;;;11.77;4.63;;;7.50;1.00;;;;;;5092679;28;20160;-69
2021/03/21 11:21:33;;;;;;;12.35;3.55;;;7.50;28.20;;;;;;5092622;28;20397;-68
2021/03/21 11:24:06;;;;;;;13.95;3.65;;;7.50;12.70;;;;;;5092896;28;20710;-68
2021/03/21 11:26:38;;;;;;;22.48;4.68;;;7.20;1.00;;;;;;5092614;28;20680;-68
2021/03/21 11:29:04;;;;;;;14.43;4.40;;;7.20;16.50;;;;;;5092633;28;20151;-68
2021/03/21 11:31:32;;;;;;;19.77;4.70;;;7.60;1.00;;;;;;5092352;28;20184;-68
2021/03/21 11:34:13;;;;;;;12.25;3.75;;;7.70;1.00;;;;;;5092533;28;20159;-69
2021/03/21 11:36:38;;;;;;;12.27;5.65;;;8.20;1.00;;;;;;5092286;28;20147;-69
2021/03/21 11:39:21;;;;;;;19.57;4.30;;;8.30;1.00;;;;;;5091261;28;20505;-69
2021/03/21 11:41:47;;;;;;;14.82;3.55;;;8.50;1.00;;;;;;5092653;28;20662;-69
2021/03/21 11:44:18;;;;;;;15.50;4.07;;;8.40;1.00;;;;;;5092464;28;20160;-69
2021/03/21 11:46:45;;;;;;;9.45;3.65;;;8.30;1.00;;;;;;5092515;28;20174;-68
2021/03/21 11:49:11;;;;;;;9.93;3.03;;;8.60;1.00;;;;;;5092567;28;20223;-68
2021/03/21 11:51:39;;;;;;;17.90;3.57;;;8.40;1.00;;;;;;5092337;28;20215;-68
2021/03/21 11:54:06;;;;;;;19.05;4.90;;;8.40;1.00;;;;;;5092431;28;20733;-69
2021/03/21 11:57:00;;;;;;;18.45;4.10;;;8.60;1.00;;;;;;5092410;28;20179;-69
2021/03/21 11:59:36;;;;;;;12.52;3.53;;;8.90;1.00;;;;;;5084899;28;20551;-69
2021/03/21 12:02:18;;;;;;;10.05;3.50;;;8.90;1.00;;;;;;5092377;28;20217;-68
2021/03/21 12:04:44;;;;;;;27.48;3.55;;;9.10;1.00;;;;;;5092465;28;20152;-69
2021/03/21 12:07:25;;;;;;;12.30;3.25;;;8.80;1.00;;;;;;5092149;28;20183;-69
2021/03/21 12:09:51;;;;;;;18.58;4.55;;;8.90;1.00;;;;;;5092677;28;20639;-69
2021/03/21 12:12:32;;;;;;;13.15;3.65;;;9.00;1.00;;;;;;5092267;28;20290;-69
2021/03/21 12:14:58;;;;;;;16.25;3.17;;;8.60;1.00;;;;;;5092979;28;20228;-69
2021/03/21 12:17:23;;;;;;;17.38;3.13;;;8.90;1.00;;;;;;5095830;28;20168;-69
2021/03/21 12:19:51;;;;;;;13.40;4.53;;;8.80;1.00;;;;;;5095858;28;20168;-69
2021/03/21 12:22:36;;;;;;;18.92;3.72;;;8.90;1.00;;;;;;5095502;28;20195;-69
2021/03/21 12:25:29;;;;;;;23.17;4.00;;;8.60;1.00;;;;;;5095277;28;20184;-68
2021/03/21 12:28:28;;;;;;;11.30;3.30;;;8.30;1.00;;;;;;5095700;28;20721;-69
2021/03/21 12:30:58;;;;;;;21.17;4.30;;;8.30;1.00;;;;;;5051168;28;20229;-69
2021/03/21 12:33:29;;;;;;;14.88;4.88;;;8.50;1.00;;;;;;5095818;28;20213;-69
2021/03/21 12:36:04;;;;;;;22.13;6.55;;;8.20;1.00;;;;;;5095616;28;20625;-69
2021/03/21 12:38:40;;;;;;;20.30;6.28;;;8.30;1.00;;;;;;5095503;28;20644;-69
2021/03/21 12:41:31;;;;;;;20.27;6.85;;;8.10;1.00;;;;;;5095402;28;20154;-69
2021/03/21 12:44:23;;;;;;;21.33;6.05;;;8.10;1.00;;;;;;5095774;28;20234;-69
2021/03/21 12:47:24;;;;;;;26.85;5.20;;;7.90;1.00;;;;;;5095433;28;20171;-69
2021/03/21 12:49:52;;;;;;;13.20;5.63;;;7.90;1.00;;;;;;5090968;28;20289;-69
2021/03/21 12:52:24;;;;;;;24.08;4.97;;;8.40;1.00;;;;;;5094920;28;20199;-69
2021/03/21 12:54:51;;;;;;;21.40;6.82;;;8.60;1.00;;;;;;5095305;28;20156;-69
2021/03/21 12:57:17;;;;;;;23.83;6.30;;;8.60;1.00;;;;;;5095247;28;20745;-69
2021/03/21 12:59:47;;;;;;;28.10;7.22;;;8.80;1.00;;;;;;5095102;28;20166;-69
2021/03/21 13:02:29;;;;;;;27.13;5.28;;;8.50;1.00;;;;;;5095220;28;20733;-68
2021/03/21 13:04:56;;;;;;;19.70;5.47;;;8.20;1.00;;;;;;5095328;28;20156;-69
2021/03/21 13:07:22;;;;;;;16.40;5.80;;;8.60;1.00;;;;;;5094750;28;20184;-69
2021/03/21 13:09:48;;;;;;;17.98;4.78;;;8.90;1.00;;;;;;5094900;28;20175;-69
2021/03/21 13:12:14;;;;;;;24.70;4.77;;;9.10;1.00;;;;;;5094870;28;20206;-69
2021/03/21 13:14:40;;;;;;;18.75;5.35;;;9.40;1.00;;;;;;5095265;28;20159;-69
2021/03/21 13:17:06;;;;;;;16.30;4.80;;;9.50;1.00;;;;;;5094558;28;20251;-68
2021/03/21 13:19:32;;;;;;;22.63;4.77;;;9.80;1.00;;;;;;5094969;28;20164;-68
2021/03/21 13:21:57;;;;;;;22.10;4.63;;;9.00;1.00;;;;;;5094701;28;20430;-69
2021/03/21 13:24:24;;;;;;;15.57;3.40;;;9.20;1.00;;;;;;5094511;28;20410;-69
2021/03/21 13:26:50;;;;;;;23.27;5.82;;;9.30;1.00;;;;;;5093685;28;20167;-69
2021/03/21 13:29:16;;;;;;;25.40;4.97;;;9.40;1.00;;;;;;5094715;28;20174;-69
2021/03/21 13:31:41;;;;;;;14.37;4.50;;;9.40;1.00;;;;;;5094413;28;20660;-69
2021/03/21 13:34:07;;;;;;;18.87;6.47;;;9.30;1.00;;;;;;5094466;28;20175;-69
2021/03/21 13:36:33;;;;;;;24.43;7.30;;;9.00;1.00;;;;;;5094367;28;20579;-68